Time;durP1;ratioP1;P1;durP2;ratioP2;P2;SDS_P1;SDS_P2;PMS_P1;PMS_P2;Temp;Humidity;BMP_temperature;BMP_pressure;BME280_temperature;BME280_humidity;BME280_pressure;Samples;Min_cycle;Max_cycle;Signal;HPM_P1;HPM_P2
2022/01/15 00:00:34;;;;;;;5.37;3.77;;;;;;;-1.43;86.97;96798.97;6058365;23;20162;-82
2022/01/15 00:02:59;;;;;;;5.33;3.90;;;;;;;-1.37;86.67;96800.50;6106784;23;20136;-82
2022/01/15 00:05:24;;;;;;;6.17;3.97;;;;;;;-1.33;86.27;96796.13;6082614;23;20243;-80
2022/01/15 00:07:50;;;;;;;5.90;4.40;;;;;;;-1.29;85.74;96802.84;6106598;23;20669;-81
2022/01/15 00:10:17;;;;;;;5.27;4.57;;;;;;;-1.23;85.05;96793.28;6105946;23;20163;-81
2022/01/15 00:12:43;;;;;;;5.43;4.53;;;;;;;-1.21;85.14;96790.69;6082049;23;20597;-81
2022/01/15 00:15:14;;;;;;;6.50;4.57;;;;;;;-1.20;85.45;96789.81;6082684;23;20234;-82
2022/01/15 00:17:50;;;;;;;4.83;3.80;;;;;;;-1.21;84.72;96783.88;6080842;23;20207;-81
2022/01/15 00:20:19;;;;;;;6.03;4.07;;;;;;;-1.17;84.75;96788.00;6059277;23;20179;-82
2022/01/15 00:22:46;;;;;;;5.57;4.17;;;;;;;-1.13;84.33;96787.91;6082388;23;20178;-80
2022/01/15 00:25:11;;;;;;;5.67;4.43;;;;;;;-1.09;84.60;96781.84;6081397;23;20183;-82
2022/01/15 00:27:37;;;;;;;6.77;4.30;;;;;;;-1.07;84.48;96783.44;6103370;23;20182;-81
2022/01/15 00:30:04;;;;;;;7.07;4.40;;;;;;;-0.97;83.98;96784.84;6103399;23;20179;-81
2022/01/15 00:32:29;;;;;;;6.13;4.13;;;;;;;-1.00;83.97;96784.09;6102676;23;20214;-82
2022/01/15 00:34:55;;;;;;;8.60;4.07;;;;;;;-0.95;83.84;96780.53;6103428;23;20155;-81
2022/01/15 00:37:20;;;;;;;5.67;4.03;;;;;;;-0.96;83.47;96780.59;6105045;23;20180;-81
2022/01/15 00:39:45;;;;;;;4.53;3.20;;;;;;;-0.98;84.02;96784.88;6103855;23;20483;-80
2022/01/15 00:42:11;;;;;;;5.07;3.83;;;;;;;-1.01;83.94;96785.81;6079431;23;20175;-81
2022/01/15 00:44:38;;;;;;;5.80;3.53;;;;;;;-1.08;84.11;96781.78;6080504;23;20286;-82
2022/01/15 00:47:04;;;;;;;5.87;3.40;;;;;;;-1.09;84.30;96772.47;6105312;23;20163;-81
2022/01/15 00:49:29;;;;;;;6.10;3.83;;;;;;;-1.14;84.90;96776.91;6103773;23;20192;-81
2022/01/15 00:51:54;;;;;;;7.37;3.97;;;;;;;-1.17;85.05;96772.69;6103572;23;20219;-81
2022/01/15 00:54:20;;;;;;;6.50;3.87;;;;;;;-1.18;84.70;96775.31;6105463;23;20168;-81
2022/01/15 00:56:45;;;;;;;5.00;3.40;;;;;;;-1.22;84.74;96768.66;6080155;23;20168;-81
2022/01/15 00:59:10;;;;;;;7.77;4.17;;;;;;;-1.23;85.07;96764.44;6078531;23;20159;-81
2022/01/15 01:01:35;;;;;;;6.67;3.60;;;;;;;-1.21;85.33;96767.75;6079142;23;20160;-82
2022/01/15 01:04:01;;;;;;;5.00;4.00;;;;;;;-1.18;85.05;96750.66;6079469;23;20196;-81
2022/01/15 01:06:26;;;;;;;5.60;3.83;;;;;;;-1.18;84.74;96757.47;6102965;23;20160;-81
2022/01/15 01:08:52;;;;;;;5.23;3.67;;;;;;;-1.16;85.02;96753.13;6102529;23;20188;-82
2022/01/15 01:11:27;;;;;;;4.67;3.93;;;;;;;-1.14;85.23;96751.41;6100758;23;20167;-82
2022/01/15 01:24:56;;;;;;;7.67;4.80;;;;;;;-1.17;85.93;96748.94;6068769;23;20203;-81
2022/01/15 01:27:27;;;;;;;6.73;4.77;;;;;;;-1.12;85.88;96744.53;6077300;23;20180;-81
2022/01/15 01:30:08;;;;;;;6.60;4.87;;;;;;;-1.14;85.79;96746.31;6101126;23;20230;-82
2022/01/15 01:35:16;;;;;;;8.43;5.73;;;;;;;-1.15;86.64;96737.81;6101773;23;20144;-81
2022/01/15 01:37:48;;;;;;;8.43;5.40;;;;;;;-1.11;86.57;96738.56;6101569;23;20186;-81
2022/01/15 01:40:21;;;;;;;9.63;6.03;;;;;;;-1.06;86.80;96736.72;6078639;23;20166;-81
2022/01/15 01:42:57;;;;;;;9.70;5.80;;;;;;;-1.11;86.69;96733.44;6078717;23;20501;-81
2022/01/15 01:45:23;;;;;;;9.33;6.27;;;;;;;-1.10;86.99;96731.72;6101323;23;20190;-80
2022/01/15 01:47:48;;;;;;;11.03;7.20;;;;;;;-1.10;87.17;96730.00;6100765;23;20258;-81
2022/01/15 01:50:22;;;;;;;9.60;6.50;;;;;;;-1.10;87.29;96742.75;6100983;23;20175;-82
2022/01/15 01:52:49;;;;;;;8.93;6.73;;;;;;;-1.11;87.23;96737.72;6076850;23;20171;-82
2022/01/15 01:55:16;;;;;;;9.50;6.50;;;;;;;-1.10;87.29;96735.13;6077374;23;20163;-82
2022/01/15 01:57:42;;;;;;;9.43;6.93;;;;;;;-1.13;87.49;96726.75;6077759;23;20205;-82
2022/01/15 02:00:14;;;;;;;13.93;7.53;;;;;;;-1.14;87.60;96736.09;6100373;23;20161;-83
2022/01/15 02:02:39;;;;;;;9.43;6.90;;;;;;;-1.16;87.95;96733.59;6077452;23;20155;-82
2022/01/15 02:05:05;;;;;;;10.27;7.13;;;;;;;-1.19;88.33;96717.56;6076614;23;20699;-82
2022/01/15 02:07:30;;;;;;;11.93;7.17;;;;;;;-1.24;88.33;96721.94;6076686;23;20192;-81
2022/01/15 02:09:57;;;;;;;12.13;8.23;;;;;;;-1.25;88.58;96721.13;6077132;23;20164;-79
2022/01/15 02:12:23;;;;;;;9.27;7.37;;;;;;;-1.27;88.77;96722.06;6076888;23;20163;-81
2022/01/15 02:14:49;;;;;;;11.20;7.80;;;;;;;-1.27;88.83;96727.16;6077182;23;20583;-81
2022/01/15 02:17:20;;;;;;;10.80;7.37;;;;;;;-1.32;89.29;96727.31;6077633;23;20174;-80
2022/01/15 02:25:12;;;;;;;10.33;8.03;;;;;;;-1.40;90.39;96725.88;6080499;23;20181;-82
2022/01/15 02:27:37;;;;;;;10.87;8.73;;;;;;;-1.36;90.21;96718.06;6100258;23;20179;-81
2022/01/15 02:30:04;;;;;;;10.30;6.53;;;;;;;-1.43;89.35;96719.13;6100671;23;20155;-81
2022/01/15 02:32:33;;;;;;;7.37;5.33;;;;;;;-1.56;89.05;96713.59;6076174;23;20598;-81
2022/01/15 02:34:59;;;;;;;8.33;5.87;;;;;;;-1.67;89.49;96718.19;6076794;23;20152;-82
2022/01/15 02:37:24;;;;;;;9.93;5.90;;;;;;;-1.78;89.90;96717.63;6099562;23;20212;-82
2022/01/15 02:39:50;;;;;;;8.80;6.47;;;;;;;-1.85;89.96;96711.06;6100587;23;20191;-81
2022/01/15 02:42:15;;;;;;;10.57;6.40;;;;;;;-1.90;90.30;96712.91;6075467;23;20222;-80
2022/01/15 02:44:43;;;;;;;13.63;7.83;;;;;;;-1.88;91.23;96717.06;6076428;23;20186;-83
2022/01/15 02:49:33;;;;;;;11.43;7.40;;;;;;;-1.74;91.19;96709.03;6104743;23;20160;-82
2022/01/15 02:51:59;;;;;;;10.90;7.67;;;;;;;-1.59;91.46;96703.50;6105103;23;20190;-83
2022/01/15 02:54:24;;;;;;;15.13;9.03;;;;;;;-1.59;91.54;96703.50;6078929;23;20162;-82
2022/01/15 02:56:49;;;;;;;13.90;9.90;;;;;;;-1.58;91.42;96696.69;6078313;23;20161;-82
2022/01/15 02:59:20;;;;;;;16.63;10.80;;;;;;;-1.48;92.23;96696.38;6102014;23;20179;-82
2022/01/15 03:01:45;;;;;;;15.77;10.17;;;;;;;-1.44;91.97;96695.38;6054511;23;20165;-82
2022/01/15 03:04:11;;;;;;;14.60;10.43;;;;;;;-1.46;91.99;96686.13;6079452;23;20258;-82
2022/01/15 03:06:36;;;;;;;15.13;11.87;;;;;;;-1.51;92.40;96686.25;6102291;23;20167;-81
2022/01/15 03:09:02;;;;;;;17.13;11.23;;;;;;;-1.47;92.73;96685.28;6102728;23;20238;-84
2022/01/15 03:11:28;;;;;;;15.37;11.03;;;;;;;-1.56;92.43;96683.03;6076118;23;20613;-82
2022/01/15 03:13:54;;;;;;;18.37;11.23;;;;;;;-1.56;92.67;96682.19;6099522;23;20167;-82
2022/01/15 03:16:20;;;;;;;16.53;11.50;;;;;;;-1.55;93.04;96683.84;6100081;23;20186;-83
2022/01/15 03:18:46;;;;;;;15.53;12.07;;;;;;;-1.62;93.21;96678.09;6075205;23;20206;-84
2022/01/15 03:21:12;;;;;;;18.90;12.60;;;;;;;-1.71;93.30;96676.66;6051553;23;20175;-84
2022/01/15 03:23:38;;;;;;;17.47;12.97;;;;;;;-1.71;93.50;96678.38;6078711;23;20165;-80
2022/01/15 03:26:04;;;;;;;20.00;13.73;;;;;;;-1.72;93.70;96661.44;6076019;23;20180;-82
2022/01/15 03:28:29;;;;;;;21.33;13.40;;;;;;;-1.77;93.72;96673.47;6052517;23;20227;-83
2022/01/15 03:30:55;;;;;;;23.07;14.60;;;;;;;-1.82;94.19;96667.69;6076901;23;20167;-82
2022/01/15 03:33:20;;;;;;;23.47;15.53;;;;;;;-1.80;94.50;96659.13;6099317;23;20167;-81
2022/01/15 03:35:45;;;;;;;23.20;15.73;;;;;;;-1.77;94.85;96655.63;6100176;23;20156;-80
2022/01/15 03:38:11;;;;;;;24.00;16.23;;;;;;;-1.75;94.58;96653.91;6076143;23;20179;-82
2022/01/15 03:40:36;;;;;;;24.40;16.23;;;;;;;-1.72;95.03;96656.34;6098881;23;20159;-83
2022/01/15 03:43:03;;;;;;;27.53;16.60;;;;;;;-1.71;95.11;96663.09;6098836;23;20262;-81
2022/01/15 03:45:28;;;;;;;23.63;15.57;;;;;;;-1.75;94.75;96652.19;6075411;23;20217;-81
2022/01/15 03:47:54;;;;;;;20.77;14.83;;;;;;;-1.76;95.29;96654.78;6101248;23;20178;-82
2022/01/15 03:50:19;;;;;;;25.20;15.70;;;;;;;-1.72;95.58;96654.63;6055555;23;20160;-80
2022/01/15 03:52:45;;;;;;;25.27;16.50;;;;;;;-1.70;95.59;96649.47;6080183;23;20170;-82
2022/01/15 03:55:12;;;;;;;25.03;15.40;;;;;;;-1.70;95.75;96646.94;6082017;23;20164;-82
2022/01/15 03:57:38;;;;;;;23.90;15.47;;;;;;;-1.62;95.87;96655.19;6081010;23;20187;-82
2022/01/15 04:00:12;;;;;;;23.77;15.03;;;;;;;-1.68;95.92;96646.88;6079374;23;20302;-82
2022/01/15 04:02:37;;;;;;;21.93;15.10;;;;;;;-1.72;95.58;96643.59;6078094;23;20188;-82
2022/01/15 04:05:03;;;;;;;20.27;15.20;;;;;;;-1.75;95.89;96641.16;6100448;23;20529;-83
2022/01/15 04:07:28;;;;;;;23.63;15.00;;;;;;;-1.81;95.67;96636.25;6101938;23;20241;-82
2022/01/15 04:09:54;;;;;;;23.23;16.33;;;;;;;-1.71;96.19;96630.00;6078834;23;20194;-82
2022/01/15 04:12:19;;;;;;;23.00;15.60;;;;;;;-1.70;96.19;96626.56;6102109;23;20162;-83
2022/01/15 04:14:44;;;;;;;23.20;16.20;;;;;;;-1.68;96.48;96626.50;6102834;23;20163;-82
2022/01/15 04:17:10;;;;;;;22.73;14.90;;;;;;;-1.66;96.13;96620.50;6100012;23;20243;-82
2022/01/15 04:19:36;;;;;;;22.90;16.20;;;;;;;-1.67;96.33;96618.00;6101590;23;20178;-81
2022/01/15 04:22:02;;;;;;;26.20;15.80;;;;;;;-1.68;96.55;96622.25;6101209;23;20162;-83
2022/01/15 04:24:28;;;;;;;24.17;15.90;;;;;;;-1.69;96.56;96615.50;6076166;23;20186;-81
2022/01/15 04:26:53;;;;;;;24.83;17.37;;;;;;;-1.71;96.32;96617.25;6100843;23;20180;-82
2022/01/15 04:29:20;;;;;;;22.03;15.93;;;;;;;-1.76;96.07;96617.41;6101150;23;20175;-81
2022/01/15 04:31:49;;;;;;;22.83;15.77;;;;;;;-1.68;96.34;96613.78;6100413;23;20171;-83
2022/01/15 04:34:26;;;;;;;23.57;17.27;;;;;;;-1.68;96.75;96617.16;6100840;23;20149;-83
2022/01/15 04:36:54;;;;;;;23.63;17.20;;;;;;;-1.71;96.63;96624.91;6077943;23;20142;-82
2022/01/15 04:39:19;;;;;;;24.30;16.20;;;;;;;-1.67;96.52;96620.56;6078520;23;20496;-83
2022/01/15 04:41:45;;;;;;;26.87;16.77;;;;;;;-1.58;96.83;96618.56;6099933;23;20179;-83
2022/01/15 04:44:10;;;;;;;25.60;17.00;;;;;;;-1.48;96.63;96614.84;6075922;23;20238;-83
2022/01/15 04:46:37;;;;;;;21.77;16.27;;;;;;;-1.40;96.31;96616.31;6099703;23;20187;-83
2022/01/15 04:49:03;;;;;;;21.70;16.20;;;;;;;-1.46;96.13;96607.97;6051950;23;20186;-83
2022/01/15 04:51:29;;;;;;;22.87;15.77;;;;;;;-1.47;96.14;96611.41;6051705;23;20191;-82
2022/01/15 04:53:55;;;;;;;28.30;16.80;;;;;;;-1.49;96.34;96613.19;6052711;23;20164;-83
2022/01/15 04:56:20;;;;;;;23.83;16.73;;;;;;;-1.56;96.40;96621.06;6100447;23;20155;-82
2022/01/15 04:58:45;;;;;;;23.27;15.03;;;;;;;-1.55;96.39;96615.06;6098932;23;20251;-82
2022/01/15 05:01:11;;;;;;;21.37;14.00;;;;;;;-1.56;96.55;96626.16;6052053;23;20175;-82
2022/01/15 05:03:36;;;;;;;21.67;14.73;;;;;;;-1.59;96.32;96616.03;6100331;23;20566;-81
2022/01/15 05:06:01;;;;;;;22.40;16.17;;;;;;;-1.60;96.50;96612.66;6077729;23;20633;-82
2022/01/15 05:08:27;;;;;;;23.00;15.67;;;;;;;-1.58;96.65;96613.47;6076467;23;20188;-82
2022/01/15 05:10:54;;;;;;;25.70;16.40;;;;;;;-1.60;96.34;96622.00;6100205;23;20159;-84
2022/01/15 05:13:26;;;;;;;26.80;15.97;;;;;;;-1.64;96.29;96618.75;6099282;23;20167;-81
2022/01/15 05:15:51;;;;;;;19.70;13.97;;;;;;;-1.57;96.55;96617.69;6100051;23;20152;-82
2022/01/15 05:18:16;;;;;;;21.60;14.93;;;;;;;-1.55;95.92;96615.91;6100060;23;20641;-83
2022/01/15 05:20:44;;;;;;;21.87;15.10;;;;;;;-1.56;95.94;96609.16;6099677;23;20181;-82
2022/01/15 05:23:09;;;;;;;25.83;14.90;;;;;;;-1.59;95.93;96611.81;6052118;23;20597;-83
2022/01/15 05:25:35;;;;;;;22.60;14.60;;;;;;;-1.58;95.65;96612.63;6099546;23;20184;-82
2022/01/15 05:28:00;;;;;;;23.77;16.33;;;;;;;-1.57;95.83;96619.38;6100370;23;20182;-82
2022/01/15 05:30:26;;;;;;;22.07;15.50;;;;;;;-1.61;96.18;96616.09;6100212;23;20488;-82
2022/01/15 05:32:51;;;;;;;20.23;15.47;;;;;;;-1.60;95.97;96615.19;6099517;23;20227;-81
2022/01/15 05:35:17;;;;;;;20.93;14.73;;;;;;;-1.65;96.05;96611.97;6099565;23;20163;-83
2022/01/15 05:37:42;;;;;;;23.87;15.33;;;;;;;-1.57;96.39;96606.66;6099169;23;20178;-83
2022/01/15 05:40:08;;;;;;;22.33;14.13;;;;;;;-1.58;95.66;96610.91;6099435;23;20169;-82
2022/01/15 05:42:33;;;;;;;20.47;14.40;;;;;;;-1.63;96.15;96605.13;6075249;23;20158;-83
2022/01/15 05:44:59;;;;;;;23.30;15.13;;;;;;;-1.63;96.06;96612.75;6100400;23;20266;-81
2022/01/15 05:47:24;;;;;;;22.83;16.30;;;;;;;-1.57;95.76;96609.19;6077593;23;20182;-82
2022/01/15 05:49:51;;;;;;;23.03;16.83;;;;;;;-1.67;96.04;96610.38;6104785;23;20194;-83
2022/01/15 05:52:16;;;;;;;22.70;15.33;;;;;;;-1.64;95.89;96615.38;6104860;23;20159;-83
2022/01/15 05:54:41;;;;;;;22.03;14.87;;;;;;;-1.65;95.91;96616.25;6105430;23;20214;-84
2022/01/15 05:57:07;;;;;;;22.90;15.37;;;;;;;-1.61;95.90;96615.25;6105614;23;20192;-84
2022/01/15 05:59:32;;;;;;;21.73;15.43;;;;;;;-1.60;96.01;96612.66;6105785;23;20170;-84
2022/01/15 06:01:58;;;;;;;22.43;15.33;;;;;;;-1.66;96.18;96615.41;6056241;23;20503;-82
2022/01/15 06:04:23;;;;;;;21.37;15.47;;;;;;;-1.60;95.97;96614.38;6082072;23;20186;-82
2022/01/15 06:06:48;;;;;;;22.30;15.43;;;;;;;-1.51;96.06;96609.81;6105315;23;20208;-84
2022/01/15 06:09:14;;;;;;;22.10;16.00;;;;;;;-1.50;95.82;96618.31;6104481;23;20235;-83
2022/01/15 06:11:40;;;;;;;21.10;14.60;;;;;;;-1.46;95.42;96615.63;6104255;23;20262;-82
2022/01/15 06:14:05;;;;;;;23.27;15.40;;;;;;;-1.43;95.82;96612.13;6103438;23;20190;-84
2022/01/15 06:16:31;;;;;;;20.93;14.83;;;;;;;-1.46;95.37;96607.97;6053934;23;20610;-84
2022/01/15 06:18:56;;;;;;;20.77;14.70;;;;;;;-1.47;95.18;96608.03;6077377;23;20182;-85
2022/01/15 06:21:24;;;;;;;23.60;15.70;;;;;;;-1.53;95.20;96605.66;6100613;23;20151;-84
2022/01/15 06:23:49;;;;;;;19.77;13.93;;;;;;;-1.60;95.73;96607.56;6075793;23;20597;-82
2022/01/15 06:26:14;;;;;;;24.73;15.50;;;;;;;-1.52;95.67;96608.16;6100090;23;20173;-84
2022/01/15 06:28:40;;;;;;;22.47;15.27;;;;;;;-1.56;95.18;96610.88;6100902;23;20180;-84
2022/01/15 06:31:05;;;;;;;24.70;16.07;;;;;;;-1.51;95.46;96609.00;6101709;23;20238;-83
2022/01/15 06:33:31;;;;;;;21.40;15.20;;;;;;;-1.48;95.29;96611.47;6077701;23;20166;-83
2022/01/15 06:35:56;;;;;;;21.60;14.37;;;;;;;-1.47;95.19;96611.41;6078252;23;20156;-83
2022/01/15 06:38:22;;;;;;;19.63;14.37;;;;;;;-1.46;95.28;96604.59;6100891;23;20271;-83
2022/01/15 06:40:47;;;;;;;19.43;13.60;;;;;;;-1.52;95.47;96609.88;6102150;23;20185;-84
2022/01/15 06:43:12;;;;;;;23.50;14.83;;;;;;;-1.44;95.47;96610.47;6099628;23;20167;-82
2022/01/15 06:45:44;;;;;;;25.57;15.17;;;;;;;-1.46;95.17;96607.97;6074860;23;20530;-84
2022/01/15 06:48:09;;;;;;;20.13;14.47;;;;;;;-1.42;95.45;96603.59;6053208;23;20210;-83
2022/01/15 06:51:07;;;;;;;22.40;14.77;;;;;;;-1.46;95.12;96592.69;6102013;23;20623;-83
2022/01/15 06:53:58;;;;;;;23.53;15.40;;;;;;;-1.49;95.32;96595.34;6058320;23;20190;-83
2022/01/15 06:57:14;;;;;;;24.93;16.07;;;;;;;-1.41;95.16;96590.00;6078413;23;20188;-83
2022/01/15 07:03:27;;;;;;;23.80;16.50;;;;;;;-1.50;95.25;96596.22;6099486;23;20209;-83
2022/01/15 07:10:08;;;;;;;26.33;18.20;;;;;;;-1.44;95.22;96585.81;5975464;24;20210;-84
2022/01/15 07:13:19;;;;;;;25.20;16.77;;;;;;;-1.42;94.92;96580.66;5952151;24;20256;-82
2022/01/15 07:15:59;;;;;;;24.13;15.87;;;;;;;-1.39;94.94;96579.75;5955520;24;20169;-82
2022/01/15 07:19:35;;;;;;;23.77;15.20;;;;;;;-1.52;94.82;96577.59;5932453;24;20191;-82
2022/01/15 07:22:39;;;;;;;20.03;14.47;;;;;;;-1.42;95.28;96578.94;5921300;24;20589;-83
2022/01/15 07:25:18;;;;;;;24.63;15.90;;;;;;;-1.49;95.18;96582.59;5904481;24;20185;-81
2022/01/15 07:27:44;;;;;;;24.30;16.37;;;;;;;-1.53;95.35;96581.03;5914704;24;20220;-80
2022/01/15 07:30:11;;;;;;;24.03;16.97;;;;;;;-1.50;95.60;96578.41;5954738;24;20165;-81
2022/01/15 07:32:37;;;;;;;24.67;16.37;;;;;;;-1.59;95.16;96581.25;5952854;24;20174;-84
2022/01/15 07:36:11;;;;;;;;;;;;;;;;;;;;;
2022/01/15 07:38:45;;;;;;;22.40;15.67;;;;;;;-1.45;95.24;96573.13;5874116;24;20266;-83
2022/01/15 07:41:32;;;;;;;28.27;17.40;;;;;;;-1.40;95.09;96576.38;5896825;24;20292;-83
2022/01/15 07:44:04;;;;;;;22.77;15.60;;;;;;;-1.42;95.17;96573.84;5987402;23;20247;-82
2022/01/15 07:46:32;;;;;;;24.43;17.03;;;;;;;-1.36;95.33;96567.75;5988577;23;20225;-82
2022/01/15 07:49:08;;;;;;;24.43;17.80;;;;;;;-1.30;95.33;96574.34;6016089;23;20181;-81
2022/01/15 07:51:33;;;;;;;23.10;17.10;;;;;;;-1.29;95.47;96581.94;6013982;23;20193;-83
2022/01/15 07:54:14;;;;;;;24.27;17.67;;;;;;;-1.35;95.25;96577.03;6020193;23;20492;-81
2022/01/15 07:56:55;;;;;;;25.60;17.37;;;;;;;-1.31;95.33;96575.25;6044132;23;20169;-81
2022/01/15 08:00:05;;;;;;;23.10;16.77;;;;;;;-1.30;95.06;96571.81;6046464;23;20163;-82
2022/01/15 08:02:30;;;;;;;26.00;17.20;;;;;;;-1.31;95.51;96565.06;5956568;24;20298;-80
2022/01/15 08:04:56;;;;;;;26.83;18.13;;;;;;;-1.17;95.80;96578.16;5956201;24;20263;-82
2022/01/15 08:07:21;;;;;;;23.30;16.80;;;;;;;-1.16;95.54;96574.72;5955742;24;20190;-80
2022/01/15 08:09:46;;;;;;;24.57;16.80;;;;;;;-1.09;95.11;96573.63;5957546;24;20171;-83
2022/01/15 08:12:12;;;;;;;25.70;18.50;;;;;;;-1.07;95.05;96569.31;5953517;24;20177;-82
2022/01/15 08:14:37;;;;;;;27.10;18.00;;;;;;;-0.94;94.63;96565.47;5967469;23;20166;-80
2022/01/15 08:17:03;;;;;;;24.47;17.07;;;;;;;-0.81;94.46;96570.94;6008859;23;20166;-80
2022/01/15 08:19:28;;;;;;;22.43;15.77;;;;;;;-0.78;93.59;96563.22;6009744;23;20180;-83
2022/01/15 08:21:54;;;;;;;23.03;17.00;;;;;;;-0.74;93.57;96566.47;5986534;23;20168;-83
2022/01/15 08:24:19;;;;;;;23.23;15.97;;;;;;;-0.63;93.40;96561.81;6010538;23;20194;-84
2022/01/15 08:26:45;;;;;;;22.03;14.80;;;;;;;-0.64;92.72;96562.72;6008673;23;20162;-84
2022/01/15 08:29:10;;;;;;;21.67;15.50;;;;;;;-0.51;92.74;96569.06;6009517;23;20197;-86
2022/01/15 08:31:36;;;;;;;19.90;15.30;;;;;;;-0.46;92.21;96569.69;5985813;23;20166;-85
2022/01/15 08:34:01;;;;;;;20.53;15.00;;;;;;;-0.34;91.83;96573.53;5985547;23;20209;-85
2022/01/15 08:36:27;;;;;;;17.57;13.27;;;;;;;-0.28;91.44;96566.47;5986073;23;20170;-85
2022/01/15 08:38:53;;;;;;;18.77;13.23;;;;;;;-0.22;91.28;96559.47;6057941;23;20186;-85
2022/01/15 08:41:18;;;;;;;18.33;13.00;;;;;;;-0.16;90.63;96554.97;6131116;23;20170;-85
2022/01/15 08:43:43;;;;;;;17.57;12.67;;;;;;;-0.01;89.95;96558.66;6131800;23;20161;-84
2022/01/15 08:46:09;;;;;;;16.97;12.00;;;;;;;0.07;89.68;96563.47;6131267;23;20526;-85
2022/01/15 08:48:35;;;;;;;16.97;12.33;;;;;;;0.18;89.12;96567.28;6131458;23;20178;-84
2022/01/15 08:51:00;;;;;;;15.30;11.10;;;;;;;0.27;88.54;96559.28;6107671;23;20170;-84
2022/01/15 08:53:25;;;;;;;17.47;11.87;;;;;;;0.35;88.01;96550.44;6132225;23;20248;-86
2022/01/15 08:55:52;;;;;;;17.63;11.60;;;;;;;0.32;86.88;96551.41;6133858;23;20165;-85
2022/01/15 08:58:19;;;;;;;16.73;11.57;;;;;;;0.45;87.34;96547.47;6134413;23;20501;-85
2022/01/15 09:00:44;;;;;;;15.07;11.83;;;;;;;0.62;86.33;96551.06;6133316;23;20159;-86
2022/01/15 09:03:10;;;;;;;15.93;11.40;;;;;;;0.73;85.65;96554.03;6130909;23;20159;-86
2022/01/15 09:05:35;;;;;;;11.33;8.70;;;;;;;0.82;83.65;96549.34;6132795;23;20237;-87
2022/01/15 09:08:02;;;;;;;12.13;8.03;;;;;;;0.95;82.75;96552.22;6130677;23;20175;-87
2022/01/15 09:10:28;;;;;;;12.53;7.80;;;;;;;1.02;82.00;96547.69;6107581;23;20647;-85
2022/01/15 09:12:53;;;;;;;11.57;7.53;;;;;;;1.11;81.75;96548.13;6131805;23;20242;-85
2022/01/15 09:15:18;;;;;;;9.70;7.30;;;;;;;1.26;80.30;96545.81;6131318;23;20595;-86
2022/01/15 09:17:44;;;;;;;8.47;6.50;;;;;;;1.39;79.45;96544.34;6135253;23;20175;-85
2022/01/15 09:20:10;;;;;;;9.87;7.37;;;;;;;1.36;79.98;96547.88;6130960;23;20171;-85
2022/01/15 09:22:35;;;;;;;9.80;7.60;;;;;;;1.47;79.10;96549.16;6106369;23;20476;-85
2022/01/15 09:25:01;;;;;;;8.87;7.10;;;;;;;1.56;78.75;96548.72;6131504;23;20189;-85
2022/01/15 09:30:12;;;;;;;13.27;7.93;;;;;;;1.76;76.58;96556.34;6136485;23;20155;-85
2022/01/15 09:32:37;;;;;;;13.93;9.10;;;;;;;1.85;76.26;96549.97;6106870;23;20156;-85
2022/01/15 09:35:03;;;;;;;10.20;6.93;;;;;;;1.98;75.24;96553.66;6131787;23;20162;-84
2022/01/15 09:37:28;;;;;;;7.37;6.20;;;;;;;2.04;73.60;96550.81;6131853;23;20665;-84
2022/01/15 09:39:54;;;;;;;6.47;5.23;;;;;;;2.11;73.41;96544.47;6131886;23;20155;-84
2022/01/15 09:42:21;;;;;;;9.30;5.50;;;;;;;2.13;72.91;96554.69;6131810;23;20167;-85
2022/01/15 09:44:48;;;;;;;8.27;5.80;;;;;;;2.12;73.63;96548.72;6131288;23;20183;-85
2022/01/15 09:47:13;;;;;;;7.87;5.73;;;;;;;2.32;71.68;96544.38;6106306;23;20175;-84
2022/01/15 09:49:43;;;;;;;10.53;5.17;;;;;;;2.46;68.60;96545.38;6107630;23;20159;-84
2022/01/15 09:52:11;;;;;;;6.77;5.00;;;;;;;2.48;69.73;96546.16;6130907;23;20159;-84
2022/01/15 09:54:38;;;;;;;9.83;5.50;;;;;;;2.53;69.40;96539.03;6106279;23;20160;-84
2022/01/15 09:57:03;;;;;;;9.27;6.70;;;;;;;2.66;69.90;96549.56;6130918;23;20155;-85
2022/01/15 09:59:29;;;;;;;9.60;5.83;;;;;;;2.74;68.17;96546.59;6106405;23;20170;-84
2022/01/15 10:01:54;;;;;;;10.83;8.23;;;;;;;2.76;71.08;96542.22;6130582;23;20215;-85
2022/01/15 10:04:19;;;;;;;11.00;8.80;;;;;;;2.75;71.46;96549.09;6106697;23;20187;-85
2022/01/15 10:07:08;;;;;;;12.67;9.70;;;;;;;2.69;71.13;96544.25;6106057;23;20652;-85
2022/01/15 10:09:33;;;;;;;15.13;10.80;;;;;;;2.63;72.31;96541.16;6116641;23;20190;-85
2022/01/15 10:11:59;;;;;;;14.87;10.63;;;;;;;2.50;73.41;96534.06;6131577;23;20601;-85
2022/01/15 10:14:39;;;;;;;15.77;11.87;;;;;;;2.18;75.80;96532.22;6131593;23;20158;-84
2022/01/15 10:17:24;;;;;;;14.20;10.40;;;;;;;2.33;75.70;96526.38;6130883;23;20155;-85
2022/01/15 10:19:50;;;;;;;12.93;9.10;;;;;;;2.47;74.22;96533.38;6131487;23;20177;-85
2022/01/15 10:22:18;;;;;;;15.03;10.97;;;;;;;2.28;75.96;96521.44;6105703;23;20238;-86
2022/01/15 10:25:07;;;;;;;15.47;12.47;;;;;;;2.16;78.11;96529.72;6105140;23;20223;-86
2022/01/15 10:27:34;;;;;;;17.57;12.73;;;;;;;2.06;77.46;96522.56;6154367;23;20179;-85
2022/01/15 10:30:05;;;;;;;15.93;12.50;;;;;;;2.18;77.49;96521.97;6130938;23;20163;-85
2022/01/15 10:32:33;;;;;;;14.73;12.23;;;;;;;2.21;78.91;96516.72;6129566;23;20155;-85
2022/01/15 10:35:00;;;;;;;15.83;12.57;;;;;;;2.43;78.11;96511.38;6105782;23;20541;-85
2022/01/15 10:37:36;;;;;;;15.47;11.77;;;;;;;2.46;78.77;96511.22;6130541;23;20175;-85
2022/01/15 10:40:11;;;;;;;16.13;11.73;;;;;;;2.64;78.19;96505.19;6155891;23;20632;-85
2022/01/15 10:42:37;;;;;;;13.57;9.33;;;;;;;2.76;76.19;96504.59;6106261;23;20237;-85
2022/01/15 10:45:13;;;;;;;12.00;8.20;;;;;;;2.98;74.44;96503.50;6131781;23;20183;-85
2022/01/15 10:47:42;;;;;;;9.87;7.40;;;;;;;3.11;72.72;96509.66;6132134;23;20178;-85
2022/01/15 10:50:09;;;;;;;11.63;9.17;;;;;;;3.21;73.49;96497.19;6131053;23;20156;-86
2022/01/15 10:52:34;;;;;;;13.47;9.17;;;;;;;3.32;73.31;96495.72;6105700;23;20164;-85
2022/01/15 10:55:11;;;;;;;11.73;7.60;;;;;;;3.33;71.31;96488.84;6106816;23;20165;-85
2022/01/15 10:57:38;;;;;;;9.30;7.33;;;;;;;3.45;70.69;96483.06;6133342;23;20171;-85
2022/01/15 11:00:06;;;;;;;8.60;6.93;;;;;;;3.54;70.29;96482.59;6107283;23;20163;-85
2022/01/15 11:02:32;;;;;;;11.17;9.23;;;;;;;3.55;70.92;96478.28;6131524;23;20163;-84
2022/01/15 11:04:57;;;;;;;10.33;7.97;;;;;;;3.55;69.99;96476.53;6133570;23;20202;-84
2022/01/15 11:07:23;;;;;;;13.00;9.07;;;;;;;3.61;69.70;96473.63;6131952;23;20259;-86
2022/01/15 11:09:51;;;;;;;12.27;9.23;;;;;;;3.53;70.47;96475.75;6130082;23;20156;-85
2022/01/15 11:12:17;;;;;;;12.03;8.57;;;;;;;3.57;70.78;96474.69;6105731;23;20190;-85
2022/01/15 11:14:42;;;;;;;9.97;8.43;;;;;;;3.65;69.94;96469.97;6106045;23;20556;-84
2022/01/15 11:17:07;;;;;;;11.00;8.20;;;;;;;3.70;70.63;96470.53;6106301;23;20314;-85
2022/01/15 11:19:34;;;;;;;9.87;7.73;;;;;;;3.80;68.75;96472.63;6130125;23;20159;-84
2022/01/15 11:22:01;;;;;;;12.23;9.57;;;;;;;3.72;69.85;96464.53;6129861;23;20211;-85
2022/01/15 11:24:26;;;;;;;13.53;8.90;;;;;;;3.79;70.34;96468.38;6132260;23;20265;-84
2022/01/15 11:26:55;;;;;;;14.77;9.27;;;;;;;3.80;70.85;96462.34;6130249;23;20605;-84
2022/01/15 11:29:21;;;;;;;12.80;10.20;;;;;;;3.78;70.38;96461.59;6108492;23;20159;-84
2022/01/15 11:31:46;;;;;;;14.67;10.20;;;;;;;3.82;70.86;96465.69;6130661;23;20190;-85
2022/01/15 11:34:14;;;;;;;13.27;10.27;;;;;;;3.84;71.15;96454.38;6132701;23;20159;-84
2022/01/15 11:36:41;;;;;;;11.77;10.00;;;;;;;3.78;71.23;96456.47;6131899;23;20231;-84
2022/01/15 11:39:12;;;;;;;11.47;9.43;;;;;;;3.84;69.56;96453.56;6132801;23;20189;-85
2022/01/15 11:41:44;;;;;;;12.60;9.40;;;;;;;3.94;69.80;96449.56;6108922;23;20171;-85
2022/01/15 11:44:16;;;;;;;12.63;9.00;;;;;;;3.86;68.33;96447.41;6108804;23;20202;-84
2022/01/15 11:46:46;;;;;;;12.33;7.90;;;;;;;3.94;68.52;96444.44;6108930;23;20625;-85
2022/01/15 11:49:30;;;;;;;11.07;8.63;;;;;;;4.05;68.06;96442.09;6160084;23;20363;-84
2022/01/15 11:52:11;;;;;;;15.30;9.43;;;;;;;3.96;68.53;96434.88;6132987;23;20593;-85
2022/01/15 11:54:51;;;;;;;11.40;8.43;;;;;;;4.12;68.23;96438.25;6132659;23;20156;-84
2022/01/15 11:57:23;;;;;;;13.10;8.73;;;;;;;4.10;67.96;96432.38;6132649;23;20222;-84
2022/01/15 11:59:54;;;;;;;14.73;9.10;;;;;;;4.17;67.99;96436.28;6132774;23;20156;-85
2022/01/15 12:02:32;;;;;;;12.73;8.57;;;;;;;4.23;68.09;96435.91;6107840;23;20215;-85
2022/01/15 12:05:16;;;;;;;12.13;8.70;;;;;;;4.25;68.53;96441.81;6133118;23;20179;-85